GCFDH EGJJ-EGJJ

Flight info

Callsign GCFDH
Flight time 0h 40m
Altitude 1500
Route DCT
Aircraft C152/L-SCDE2/C

Departure

Time 2026-05-05 19:46
Airport Jersey Airport (EGJJ)

Arrival

Time 2026-05-05 20:27
Airport Jersey Airport (EGJJ)
Time Latitude Longitude Altitude Speed Heading
2026-05-05 19:37 49.20710 -2.18334 277 ft 0 kts 177°
2026-05-05 19:40 49.20698 -2.18357 277 ft 8 kts 265°
2026-05-05 19:40 49.20708 -2.18457 277 ft 8 kts 322°
2026-05-05 19:41 49.20739 -2.18445 277 ft 8 kts 88°
2026-05-05 19:41 49.20746 -2.18344 277 ft 9 kts 63°
2026-05-05 19:41 49.20786 -2.18318 277 ft 4 kts
2026-05-05 19:41 49.20801 -2.18320 277 ft 0 kts 352°
2026-05-05 19:42 49.20817 -2.18326 277 ft 7 kts 333°
2026-05-05 19:42 49.20881 -2.18388 274 ft 15 kts 306°
2026-05-05 19:42 49.20883 -2.18512 274 ft 11 kts 266°
2026-05-05 19:42 49.20881 -2.18536 274 ft 0 kts 264°
2026-05-05 19:44 49.20865 -2.18739 275 ft 43 kts 263°
2026-05-05 19:44 49.20809 -2.19378 350 ft 73 kts 263°
2026-05-05 19:44 49.20707 -2.20208 491 ft 85 kts 261°
2026-05-05 19:44 49.20554 -2.21113 624 ft 85 kts 262°
2026-05-05 19:45 49.20373 -2.22021 686 ft 98 kts 262°
2026-05-05 19:45 49.20148 -2.23117 605 ft 114 kts 261°
2026-05-05 19:45 49.19920 -2.24283 508 ft 115 kts 261°
2026-05-05 19:45 49.19702 -2.25479 398 ft 118 kts 258°
2026-05-05 19:46 49.19512 -2.26672 367 ft 114 kts 260°
2026-05-05 19:46 49.19245 -2.27717 546 ft 103 kts 225°
2026-05-05 19:46 49.18565 -2.27822 755 ft 102 kts 165°
2026-05-05 19:46 49.17882 -2.27649 972 ft 100 kts 171°
2026-05-05 19:47 49.17139 -2.27462 999 ft 115 kts 170°
2026-05-05 19:47 49.16331 -2.27267 1008 ft 120 kts 170°
2026-05-05 19:47 49.15503 -2.27071 1011 ft 121 kts 170°
2026-05-05 19:47 49.14683 -2.26892 1007 ft 115 kts 170°
2026-05-05 19:48 49.13909 -2.26731 1001 ft 110 kts 170°
2026-05-05 19:48 49.13162 -2.26574 995 ft 107 kts 171°
2026-05-05 19:48 49.12437 -2.26399 991 ft 106 kts 170°
2026-05-05 19:48 49.11851 -2.25856 989 ft 98 kts 105°
2026-05-05 19:49 49.11831 -2.24881 996 ft 92 kts 81°
2026-05-05 19:49 49.11845 -2.23909 998 ft 91 kts 80°
2026-05-05 19:49 49.11864 -2.22946 1000 ft 90 kts 81°
2026-05-05 19:49 49.11892 -2.21992 999 ft 87 kts 70°
2026-05-05 19:50 49.12302 -2.21553 996 ft 78 kts 351°
2026-05-05 19:50 49.12835 -2.21734 1000 ft 78 kts 350°
2026-05-05 19:50 49.13377 -2.21884 1004 ft 80 kts 351°
2026-05-05 19:50 49.13833 -2.22307 1002 ft 87 kts 296°
2026-05-05 19:51 49.13715 -2.23257 1006 ft 95 kts 259°
2026-05-05 19:51 49.13400 -2.24141 1002 ft 103 kts 218°
2026-05-05 19:51 49.12690 -2.24198 1001 ft 105 kts 168°
2026-05-05 19:51 49.11973 -2.24048 1003 ft 105 kts 168°
2026-05-05 19:52 49.11477 -2.23402 995 ft 93 kts 92°
2026-05-05 19:52 49.11495 -2.22452 998 ft 90 kts 81°
2026-05-05 19:52 49.11507 -2.21494 1003 ft 94 kts 80°
2026-05-05 19:52 49.11524 -2.20443 1011 ft 103 kts 81°
2026-05-05 19:53 49.11619 -2.19357 1012 ft 104 kts 68°
2026-05-05 19:53 49.11804 -2.18262 1008 ft 108 kts 69°
2026-05-05 19:53 49.11979 -2.17153 1006 ft 106 kts 70°
2026-05-05 19:53 49.12161 -2.16073 1009 ft 105 kts 69°
2026-05-05 19:54 49.12350 -2.15009 1007 ft 104 kts 69°
2026-05-05 19:54 49.12534 -2.13950 1005 ft 102 kts 69°
2026-05-05 19:54 49.12698 -2.12890 1003 ft 103 kts 69°
2026-05-05 19:54 49.12862 -2.11851 1002 ft 101 kts 69°
2026-05-05 19:55 49.13031 -2.10826 998 ft 100 kts 68°
2026-05-05 19:55 49.13197 -2.09771 1001 ft 103 kts 69°
2026-05-05 19:55 49.13373 -2.08714 995 ft 100 kts 70°
2026-05-05 19:55 49.13551 -2.07700 994 ft 97 kts 69°
2026-05-05 19:56 49.13710 -2.06674 1016 ft 102 kts 69°
2026-05-05 19:56 49.13942 -2.05693 1014 ft 95 kts 42°
2026-05-05 19:56 49.14552 -2.05561 1024 ft 95 kts 347°
2026-05-05 19:56 49.15196 -2.05775 1029 ft 94 kts 351°
2026-05-05 19:57 49.15836 -2.05998 1026 ft 94 kts 350°
2026-05-05 19:57 49.16483 -2.06208 1027 ft 95 kts 351°
2026-05-05 19:57 49.17121 -2.06421 1021 ft 93 kts 350°
2026-05-05 19:57 49.17748 -2.06638 1026 ft 91 kts 350°
2026-05-05 19:58 49.18371 -2.06834 1026 ft 91 kts 352°
2026-05-05 19:58 49.18993 -2.07060 1028 ft 93 kts 350°
2026-05-05 19:58 49.19636 -2.07271 1033 ft 95 kts 351°
2026-05-05 19:58 49.20287 -2.07464 1036 ft 96 kts 351°
2026-05-05 19:59 49.20949 -2.07664 1035 ft 97 kts 350°
2026-05-05 19:59 49.21603 -2.07852 1033 ft 96 kts 351°
2026-05-05 19:59 49.22172 -2.08332 1011 ft 102 kts 304°
2026-05-05 19:59 49.22065 -2.09405 998 ft 114 kts 236°
2026-05-05 20:00 49.21612 -2.10367 1058 ft 111 kts 230°
2026-05-05 20:00 49.20892 -2.10639 1088 ft 113 kts 159°
2026-05-05 20:00 49.20177 -2.10185 1100 ft 112 kts 162°
2026-05-05 20:00 49.19560 -2.09524 1068 ft 108 kts 129°
2026-05-05 20:01 49.19106 -2.08648 1063 ft 102 kts 95°
2026-05-05 20:01 49.19289 -2.07683 1063 ft 95 kts 59°
2026-05-05 20:01 49.19756 -2.07069 1068 ft 93 kts
2026-05-05 20:01 49.20377 -2.07402 1075 ft 97 kts 339°
2026-05-05 20:02 49.21007 -2.07785 1077 ft 98 kts 340°
2026-05-05 20:02 49.21489 -2.08475 1075 ft 104 kts 292°
2026-05-05 20:02 49.21632 -2.09575 1046 ft 107 kts 285°
2026-05-05 20:02 49.21483 -2.10723 1041 ft 113 kts 259°
2026-05-05 20:03 49.21289 -2.11866 1037 ft 109 kts 269°
2026-05-05 20:03 49.21230 -2.13001 1038 ft 107 kts 272°
2026-05-05 20:03 49.21162 -2.14151 1042 ft 109 kts 272°
2026-05-05 20:03 49.21054 -2.15336 932 ft 115 kts 268°
2026-05-05 20:04 49.21005 -2.16562 675 ft 121 kts 269°
2026-05-05 20:04 49.20943 -2.17764 479 ft 113 kts 262°
2026-05-05 20:04 49.20857 -2.18795 308 ft 88 kts 264°
2026-05-05 20:04 49.20788 -2.19608 276 ft 67 kts 263°
2026-05-05 20:05 49.20728 -2.20355 276 ft 85 kts 263°
2026-05-05 20:05 49.20646 -2.21304 414 ft 90 kts 263°
2026-05-05 20:05 49.20506 -2.22209 572 ft 85 kts 261°
2026-05-05 20:05 49.20317 -2.23097 752 ft 91 kts 261°
2026-05-05 20:06 49.20111 -2.24003 927 ft 89 kts 259°
2026-05-05 20:06 49.19915 -2.24938 1003 ft 99 kts 261°
2026-05-05 20:06 49.19701 -2.25987 1008 ft 107 kts 260°
2026-05-05 20:06 49.19487 -2.27084 1008 ft 108 kts 260°
2026-05-05 20:07 49.19274 -2.28182 1010 ft 107 kts 260°
2026-05-05 20:07 49.19066 -2.29275 1006 ft 108 kts 260°
2026-05-05 20:07 49.18850 -2.30385 1007 ft 110 kts 260°
2026-05-05 20:07 49.18454 -2.31380 1002 ft 118 kts 216°
2026-05-05 20:08 49.17643 -2.31465 996 ft 120 kts 168°
2026-05-05 20:08 49.16821 -2.31259 998 ft 120 kts 170°
2026-05-05 20:08 49.15990 -2.31073 1005 ft 121 kts 170°
2026-05-05 20:08 49.15155 -2.30878 1005 ft 121 kts 171°
2026-05-05 20:09 49.14431 -2.30333 990 ft 117 kts 120°
2026-05-05 20:09 49.14329 -2.29192 1002 ft 108 kts 78°
2026-05-05 20:09 49.14368 -2.28037 1000 ft 108 kts 81°
2026-05-05 20:09 49.14402 -2.26901 1000 ft 107 kts 80°
2026-05-05 20:10 49.14440 -2.25771 1000 ft 107 kts 81°
2026-05-05 20:10 49.14477 -2.24626 1002 ft 109 kts 81°
2026-05-05 20:10 49.14518 -2.23483 1002 ft 109 kts 80°
2026-05-05 20:10 49.14620 -2.22350 1009 ft 106 kts 70°
2026-05-05 20:11 49.14785 -2.21245 1000 ft 107 kts 71°
2026-05-05 20:11 49.14957 -2.20154 1008 ft 104 kts 71°
2026-05-05 20:11 49.15136 -2.19088 1007 ft 102 kts 71°
2026-05-05 20:11 49.15302 -2.18026 1003 ft 103 kts 70°
2026-05-05 20:12 49.15464 -2.16961 1000 ft 102 kts 70°
2026-05-05 20:12 49.15631 -2.15922 1002 ft 99 kts 70°
2026-05-05 20:12 49.15794 -2.14879 1003 ft 103 kts 71°
2026-05-05 20:12 49.15953 -2.13802 1003 ft 104 kts 70°
2026-05-05 20:13 49.16122 -2.12763 997 ft 99 kts 70°
2026-05-05 20:13 49.16303 -2.11761 1005 ft 97 kts 58°
2026-05-05 20:13 49.16848 -2.11361 993 ft 93 kts 352°
2026-05-05 20:13 49.17485 -2.11569 997 ft 94 kts 351°
2026-05-05 20:14 49.18120 -2.11769 997 ft 94 kts 351°
2026-05-05 20:14 49.18757 -2.11992 1004 ft 95 kts 350°
2026-05-05 20:14 49.19410 -2.12201 1008 ft 95 kts 351°
2026-05-05 20:14 49.20048 -2.12422 1004 ft 93 kts 350°
2026-05-05 20:15 49.20690 -2.12645 1006 ft 96 kts 350°
2026-05-05 20:15 49.21248 -2.13153 1006 ft 101 kts 302°
2026-05-05 20:15 49.21191 -2.14270 1005 ft 111 kts 260°
2026-05-05 20:15 49.21059 -2.15422 915 ft 114 kts 278°
2026-05-05 20:16 49.21035 -2.16623 801 ft 114 kts 264°
2026-05-05 20:16 49.20919 -2.17822 511 ft 101 kts 262°
2026-05-05 20:16 49.20857 -2.18808 287 ft 84 kts 262°
2026-05-05 20:16 49.20790 -2.19566 277 ft 63 kts 261°
2026-05-05 20:17 49.20726 -2.20329 274 ft 90 kts 263°
2026-05-05 20:17 49.20639 -2.21281 489 ft 86 kts 265°
2026-05-05 20:17 49.20526 -2.22107 740 ft 73 kts 263°
2026-05-05 20:17 49.20381 -2.22868 943 ft 80 kts 261°
2026-05-05 20:18 49.20233 -2.23768 1007 ft 95 kts 263°
2026-05-05 20:18 49.20074 -2.24808 1009 ft 104 kts 263°
2026-05-05 20:18 49.19867 -2.25890 1010 ft 111 kts 243°
2026-05-05 20:18 49.19167 -2.26366 1001 ft 120 kts 175°
2026-05-05 20:19 49.18345 -2.26143 1008 ft 120 kts 171°
2026-05-05 20:19 49.17519 -2.25922 1011 ft 120 kts 171°
2026-05-05 20:19 49.16697 -2.25697 1012 ft 120 kts 170°
2026-05-05 20:19 49.15875 -2.25475 1009 ft 120 kts 170°
2026-05-05 20:20 49.15046 -2.25272 1012 ft 120 kts 168°
2026-05-05 20:20 49.14439 -2.24514 1002 ft 114 kts 103°
2026-05-05 20:20 49.14432 -2.23357 999 ft 109 kts 79°
2026-05-05 20:20 49.14465 -2.22200 999 ft 109 kts 80°
2026-05-05 20:21 49.14501 -2.21045 1002 ft 109 kts 81°
2026-05-05 20:21 49.14553 -2.19906 1010 ft 106 kts 80°
2026-05-05 20:21 49.14609 -2.18784 1004 ft 105 kts 79°
2026-05-05 20:21 49.14650 -2.17672 1003 ft 105 kts 79°
2026-05-05 20:22 49.14686 -2.16557 997 ft 105 kts 81°
2026-05-05 20:22 49.14724 -2.15457 994 ft 102 kts 80°
2026-05-05 20:22 49.14774 -2.14384 997 ft 103 kts 80°
2026-05-05 20:22 49.14813 -2.13275 998 ft 106 kts 81°
2026-05-05 20:23 49.14861 -2.12164 990 ft 105 kts 81°
2026-05-05 20:23 49.15173 -2.11293 989 ft 95 kts 22°
2026-05-05 20:23 49.15812 -2.11370 1001 ft 94 kts 350°
2026-05-05 20:23 49.16463 -2.11533 1002 ft 94 kts 352°
2026-05-05 20:24 49.17115 -2.11707 1001 ft 95 kts 352°
2026-05-05 20:24 49.17768 -2.11887 1001 ft 96 kts 352°
2026-05-05 20:24 49.18422 -2.12077 1002 ft 96 kts 351°
2026-05-05 20:24 49.18865 -2.12205 1006 ft 98 kts 352°
2026-05-05 20:25 49.19528 -2.12392 1011 ft 96 kts 352°
2026-05-05 20:25 49.20387 -2.12660 1007 ft 94 kts 351°
2026-05-05 20:25 49.21017 -2.12923 1000 ft 96 kts 329°
2026-05-05 20:25 49.21229 -2.13538 1000 ft 105 kts 278°
2026-05-05 20:26 49.21076 -2.14664 1001 ft 109 kts 264°
2026-05-05 20:26 49.21074 -2.15832 833 ft 118 kts 276°
2026-05-05 20:26 49.20995 -2.17069 664 ft 115 kts 264°
2026-05-05 20:26 49.20862 -2.18162 441 ft 91 kts 275°
2026-05-05 20:27 49.20837 -2.19076 283 ft 76 kts 262°
2026-05-05 20:27 49.20769 -2.19758 275 ft 54 kts 265°
2026-05-05 20:27 49.20699 -2.20120 274 ft 16 kts 175°
2026-05-05 20:27 49.20595 -2.20095 274 ft 15 kts 172°
2026-05-05 20:28 49.20524 -2.20020 274 ft 8 kts 120°
2026-05-05 20:28 49.20521 -2.19970 274 ft 6 kts 85°
2026-05-05 20:28 49.20552 -2.19924 275 ft 8 kts 12°
2026-05-05 20:28 49.20602 -2.19865 275 ft 12 kts 70°
2026-05-05 20:29 49.20619 -2.19705 275 ft 16 kts 66°
2026-05-05 20:29 49.20689 -2.19603 275 ft 14 kts 62°
2026-05-05 20:29 49.20709 -2.19440 275 ft 18 kts 79°
2026-05-05 20:29 49.20691 -2.19267 276 ft 18 kts 104°
2026-05-05 20:30 49.20683 -2.19079 276 ft 17 kts 69°
2026-05-05 20:30 49.20701 -2.18907 276 ft 16 kts 83°
2026-05-05 20:30 49.20716 -2.18747 276 ft 14 kts 82°
2026-05-05 20:30 49.20730 -2.18599 276 ft 14 kts 87°
2026-05-05 20:31 49.20735 -2.18482 277 ft 0 kts 85°
2026-05-05 20:31 49.20721 -2.18466 277 ft 5 kts 152°
2026-05-05 20:31 49.20698 -2.18423 277 ft 6 kts 89°
2026-05-05 20:31 49.20698 -2.18372 277 ft 0 kts 97°
2026-05-05 20:32 49.20705 -2.18365 277 ft 2 kts 357°
2026-05-05 20:32 49.20707 -2.18365 277 ft 0 kts